createdAt,value
2017-05-16T00:00:44.146Z,74.90
2017-05-16T00:03:41.431Z,68.30
2017-05-16T00:06:29.913Z,67.50
2017-05-16T00:08:59.689Z,66.80
2017-05-16T00:11:42.515Z,65.60
2017-05-16T00:14:41.415Z,65.20
2017-05-16T00:17:10.410Z,65.40
2017-05-16T00:19:39.410Z,65.00
2017-05-16T00:22:08.444Z,65.30
2017-05-16T00:24:37.446Z,65.60
2017-05-16T00:27:06.479Z,65.00
2017-05-16T00:29:42.815Z,64.90
2017-05-16T00:32:11.811Z,64.90
2017-05-16T00:34:40.846Z,65.00
2017-05-16T00:37:09.829Z,65.20
2017-05-16T00:39:44.787Z,65.10
2017-05-16T00:42:14.556Z,68.40
2017-05-16T00:44:43.542Z,67.40
2017-05-16T00:47:12.529Z,68.20
2017-05-16T00:49:41.565Z,71.80
2017-05-16T00:52:11.312Z,75.00
2017-05-16T00:54:40.357Z,77.90
2017-05-16T01:00:10.651Z,77.40
2017-05-16T01:02:39.662Z,77.70
2017-05-16T01:05:08.707Z,79.30
2017-05-16T01:07:44.806Z,80.10
2017-05-16T01:10:13.842Z,83.30
2017-05-16T01:12:42.830Z,84.30
2017-05-16T01:15:11.821Z,87.20
2017-05-16T01:17:40.837Z,88.80
2017-05-16T01:20:10.561Z,88.70
2017-05-16T01:22:39.600Z,89.00
2017-05-16T01:28:10.556Z,89.30
2017-05-16T01:30:39.541Z,88.40
2017-05-16T01:33:08.572Z,84.30
2017-05-16T01:35:44.909Z,80.90
2017-05-16T01:38:13.931Z,79.70
2017-05-16T01:40:43.665Z,80.10
2017-05-16T01:43:12.708Z,81.20
2017-05-16T01:45:41.700Z,82.60
2017-05-16T01:48:10.695Z,85.00
2017-05-16T01:50:39.749Z,84.00
2017-05-16T01:53:08.747Z,83.70
2017-05-16T01:55:37.783Z,82.40
2017-05-16T01:58:06.793Z,85.60
2017-05-16T02:00:36.578Z,81.00
2017-05-16T02:03:05.570Z,78.90
2017-05-16T02:05:34.622Z,76.50
2017-05-16T02:08:03.628Z,79.00
2017-05-16T02:10:32.665Z,76.80
2017-05-16T02:13:01.648Z,79.30
2017-05-16T02:15:30.639Z,78.50
2017-05-16T02:17:59.658Z,75.40
2017-05-16T02:20:29.391Z,73.30
2017-05-16T02:22:58.532Z,73.40
2017-05-16T02:25:27.549Z,72.50
2017-05-16T02:27:57.296Z,71.80
2017-05-16T02:30:26.319Z,71.70
2017-05-16T02:32:55.318Z,72.80
2017-05-16T02:35:24.320Z,73.90
2017-05-16T02:37:53.357Z,74.40
2017-05-16T02:40:22.351Z,75.10
2017-05-16T02:42:51.344Z,78.80
2017-05-16T02:45:20.374Z,83.50
2017-05-16T02:47:49.374Z,85.00
2017-05-16T02:50:42.003Z,81.40
2017-05-16T02:53:11.009Z,74.80
2017-05-16T02:55:40.006Z,79.70
2017-05-16T02:58:09.061Z,82.80
2017-05-16T03:00:38.051Z,80.30
2017-05-16T03:06:07.969Z,79.10
2017-05-16T03:08:36.972Z,82.30
2017-05-16T03:11:05.975Z,80.60
2017-05-16T03:16:09.541Z,79.00
2017-05-16T03:18:45.112Z,74.50
2017-05-16T03:21:14.878Z,72.90
2017-05-16T03:23:43.862Z,72.10
2017-05-16T03:26:12.854Z,73.60
2017-05-16T03:28:41.888Z,74.80
2017-05-16T03:31:41.857Z,73.90
2017-05-16T03:34:10.874Z,76.00
2017-05-16T03:36:39.919Z,80.40
2017-05-16T03:39:08.907Z,81.80
2017-05-16T03:41:37.903Z,81.50
2017-05-16T03:44:06.930Z,79.50
2017-05-16T03:46:42.305Z,79.30
2017-05-16T03:49:11.331Z,80.10
2017-05-16T03:51:40.322Z,83.10
2017-05-16T03:54:09.361Z,84.70
2017-05-16T03:56:38.417Z,85.40
2017-05-16T03:59:07.420Z,86.00
2017-05-16T04:01:36.414Z,85.60
2017-05-16T04:04:05.431Z,84.70
2017-05-16T04:06:34.429Z,84.90
2017-05-16T04:09:03.471Z,86.40
2017-05-16T04:11:32.473Z,87.00
2017-05-16T04:14:01.465Z,85.30
2017-05-16T04:16:30.499Z,82.90
2017-05-16T04:18:59.489Z,83.20
2017-05-16T04:21:28.521Z,84.10
2017-05-16T04:23:58.297Z,82.30
2017-05-16T04:26:27.291Z,86.00
2017-05-16T04:28:56.280Z,86.30
2017-05-16T04:31:25.319Z,86.40
2017-05-16T04:33:54.335Z,83.70
2017-05-16T04:36:23.332Z,84.10
2017-05-16T04:38:52.365Z,86.60
2017-05-16T04:41:21.359Z,87.50
2017-05-16T04:43:50.394Z,88.20
2017-05-16T04:46:19.405Z,88.50
2017-05-16T04:48:48.412Z,88.20
2017-05-16T04:51:43.147Z,89.00
2017-05-16T04:54:12.887Z,89.00
2017-05-16T04:56:42.978Z,88.60
2017-05-16T04:59:12.724Z,87.10
2017-05-16T05:01:41.794Z,87.30
2017-05-16T05:04:10.796Z,87.70
2017-05-16T05:06:39.782Z,86.60
2017-05-16T05:09:08.778Z,87.60
2017-05-16T05:11:44.378Z,85.70
2017-05-16T05:14:13.433Z,87.60
2017-05-16T05:16:42.427Z,88.60
2017-05-16T05:19:11.418Z,88.60
2017-05-16T05:21:40.452Z,90.00
2017-05-16T05:24:09.493Z,87.50
2017-05-16T05:26:38.486Z,87.50
2017-05-16T05:29:07.489Z,88.70
2017-05-16T05:31:36.540Z,88.80
2017-05-16T05:34:06.279Z,87.90
2017-05-16T05:36:35.606Z,88.70
2017-05-16T05:39:04.608Z,88.70
2017-05-16T05:41:44.093Z,88.10
2017-05-16T05:44:30.621Z,88.90
2017-05-16T05:46:59.660Z,87.50
2017-05-16T05:49:28.668Z,87.60
2017-05-16T05:51:58.409Z,88.40
2017-05-16T05:54:27.457Z,87.30
2017-05-16T06:02:59.656Z,83.50
2017-05-16T06:05:28.698Z,84.90
2017-05-16T06:07:57.724Z,85.10
2017-05-16T06:10:26.725Z,83.70
2017-05-16T06:12:55.808Z,82.60
2017-05-16T06:15:44.688Z,79.00
2017-05-16T06:18:41.886Z,79.60
2017-05-16T06:24:41.303Z,80.60
2017-05-16T06:30:42.716Z,81.00
2017-05-16T06:33:11.751Z,79.20
2017-05-16T06:35:44.357Z,77.00
2017-05-16T06:38:13.402Z,79.90
2017-05-16T06:40:43.610Z,80.30
2017-05-16T06:43:42.862Z,79.70
2017-05-16T06:49:05.183Z,76.50
2017-05-16T06:51:44.068Z,78.30
2017-05-16T06:54:43.005Z,78.70
2017-05-16T06:57:41.656Z,77.50
2017-05-16T07:00:10.727Z,77.50
2017-05-16T07:02:43.426Z,77.50
2017-05-16T07:07:57.411Z,75.60
2017-05-16T07:10:26.449Z,75.20
2017-05-16T07:12:56.209Z,74.90
2017-05-16T07:15:42.231Z,75.10
2017-05-16T07:21:42.714Z,75.30
2017-05-16T07:24:41.319Z,75.00
2017-05-16T07:27:10.366Z,74.20
2017-05-16T07:29:39.366Z,73.90
2017-05-16T07:32:15.556Z,75.20
2017-05-16T07:34:44.546Z,74.10
2017-05-16T07:37:13.531Z,74.80
2017-05-16T07:39:42.566Z,74.10
2017-05-16T07:42:11.573Z,73.90
2017-05-16T07:44:44.286Z,74.20
2017-05-16T07:47:14.036Z,72.00
2017-05-16T07:49:43.040Z,74.50
2017-05-16T07:52:12.063Z,73.20
2017-05-16T07:54:41.105Z,75.50
2017-05-16T07:57:10.098Z,71.00
2017-05-16T07:59:41.343Z,70.60
2017-05-16T08:02:10.373Z,71.10
2017-05-16T08:04:39.383Z,71.90
2017-05-16T08:07:09.117Z,71.80
2017-05-16T08:09:38.168Z,72.20
2017-05-16T08:15:08.612Z,72.30
2017-05-16T08:17:37.605Z,70.50
2017-05-16T08:22:56.892Z,73.10
2017-05-16T08:25:25.902Z,71.70
2017-05-16T08:27:54.904Z,70.80
2017-05-16T08:30:24.685Z,70.00
2017-05-16T08:32:53.678Z,71.40
2017-05-16T08:35:22.718Z,71.00
2017-05-16T08:37:51.768Z,72.00
2017-05-16T08:40:20.771Z,69.60
2017-05-16T08:42:49.770Z,69.60
2017-05-16T08:45:19.573Z,68.30
2017-05-16T08:50:49.495Z,67.10
2017-05-16T08:53:42.498Z,67.40
2017-05-16T08:56:31.370Z,67.40
2017-05-16T08:59:00.401Z,68.00
2017-05-16T09:01:43.063Z,66.90
2017-05-16T09:04:12.061Z,65.50
2017-05-16T09:06:41.062Z,64.10
2017-05-16T09:09:10.090Z,64.80
2017-05-16T09:11:39.084Z,64.10
2017-05-16T09:14:08.122Z,63.90
2017-05-16T09:16:37.107Z,64.50
2017-05-16T09:19:06.873Z,62.30
2017-05-16T09:21:42.570Z,62.20
2017-05-16T09:24:11.602Z,55.10
2017-05-16T09:26:40.599Z,57.00
2017-05-16T09:29:09.605Z,56.90
2017-05-16T09:31:38.661Z,59.00
2017-05-16T09:34:07.655Z,55.50
2017-05-16T09:36:40.230Z,59.50
2017-05-16T09:39:09.233Z,50.30
2017-05-16T09:41:38.232Z,49.90
2017-05-16T09:46:58.916Z,55.70
2017-05-16T09:49:27.902Z,57.00
2017-05-16T09:51:57.669Z,56.40
2017-05-16T09:54:26.721Z,56.40
2017-05-16T09:56:55.721Z,53.10
2017-05-16T09:59:44.039Z,51.40
2017-05-16T10:02:13.805Z,54.90
2017-05-16T10:04:43.051Z,55.00
2017-05-16T10:07:12.796Z,47.90
2017-05-16T10:09:41.781Z,54.50
2017-05-16T10:12:10.834Z,50.80
2017-05-16T10:14:40.565Z,51.60
2017-05-16T10:17:09.558Z,49.90
2017-05-16T10:19:45.112Z,53.10
2017-05-16T10:25:01.561Z,49.50
2017-05-16T10:27:30.577Z,48.80
2017-05-16T10:29:59.606Z,47.00
2017-05-16T10:32:28.605Z,47.10
2017-05-16T10:34:57.624Z,48.60
2017-05-16T10:37:26.618Z,46.90
2017-05-16T10:39:55.619Z,46.60
2017-05-16T10:42:43.905Z,47.00
2017-05-16T10:45:13.630Z,47.60
2017-05-16T10:47:43.084Z,48.00
2017-05-16T10:50:12.085Z,47.00
2017-05-16T10:52:41.087Z,49.40
2017-05-16T10:55:10.134Z,47.60
2017-05-16T10:57:39.127Z,47.00
2017-05-16T11:00:08.167Z,48.20
2017-05-16T11:02:43.768Z,49.00
2017-05-16T11:05:12.826Z,47.10
2017-05-16T11:07:42.553Z,50.00
2017-05-16T11:10:11.553Z,49.00
2017-05-16T11:12:40.597Z,48.30
2017-05-16T11:15:09.635Z,49.50
2017-05-16T11:17:38.628Z,50.70
2017-05-16T11:20:07.682Z,50.50
2017-05-16T11:22:36.664Z,46.90
2017-05-16T11:25:05.686Z,48.60
2017-05-16T11:27:34.715Z,47.50
2017-05-16T11:30:03.733Z,48.80
2017-05-16T11:32:32.737Z,45.70
2017-05-16T11:35:01.773Z,49.50
2017-05-16T11:37:43.443Z,46.00
2017-05-16T11:40:13.214Z,46.80
2017-05-16T11:42:43.232Z,45.30
2017-05-16T11:45:12.264Z,47.50
2017-05-16T11:47:42.064Z,45.70
2017-05-16T11:50:11.052Z,43.90
2017-05-16T11:52:40.035Z,43.50
2017-05-16T11:55:09.057Z,44.20
2017-05-16T11:57:38.825Z,44.20
2017-05-16T12:00:07.855Z,43.00
2017-05-16T12:02:43.446Z,44.10
2017-05-16T12:05:42.201Z,48.70
2017-05-16T12:11:11.882Z,48.00
2017-05-16T12:13:40.869Z,42.70
2017-05-16T12:16:09.873Z,46.80
2017-05-16T12:18:44.889Z,46.80
2017-05-16T12:21:13.878Z,47.00
2017-05-16T12:23:43.273Z,41.30
2017-05-16T12:26:32.236Z,41.20
2017-05-16T12:29:01.236Z,43.10
2017-05-16T12:31:30.274Z,42.80
2017-05-16T12:34:00.033Z,44.70
2017-05-16T12:36:32.869Z,42.60
2017-05-16T12:39:02.662Z,44.60
2017-05-16T12:41:38.017Z,41.10
2017-05-16T12:46:45.802Z,44.90
2017-05-16T12:49:14.864Z,41.90
2017-05-16T12:51:43.879Z,40.10
2017-05-16T12:54:42.586Z,41.20
2017-05-16T12:57:11.579Z,42.00
2017-05-16T12:59:40.600Z,38.60
2017-05-16T13:02:10.373Z,40.00
2017-05-16T13:04:39.389Z,40.10
2017-05-16T13:07:08.374Z,44.50
2017-05-16T13:09:37.407Z,40.20
2017-05-16T13:12:06.399Z,39.30
2017-05-16T13:14:43.650Z,41.90
2017-05-16T13:17:12.642Z,39.80
2017-05-16T13:19:43.057Z,41.80
2017-05-16T13:24:51.534Z,40.60
2017-05-16T13:27:20.537Z,40.80
2017-05-16T13:29:49.524Z,37.60
2017-05-16T13:32:44.223Z,37.90
2017-05-16T13:35:13.207Z,37.00
2017-05-16T13:37:42.244Z,36.30
2017-05-16T13:40:41.645Z,35.20
2017-05-16T13:48:50.578Z,39.80
2017-05-16T13:51:19.637Z,34.50
2017-05-16T13:53:49.404Z,36.10
2017-05-16T13:56:31.506Z,37.10
2017-05-16T13:59:00.523Z,36.70
2017-05-16T14:01:42.669Z,33.00
2017-05-16T14:06:50.192Z,32.60
2017-05-16T14:09:19.270Z,37.60
2017-05-16T14:11:48.263Z,31.20
2017-05-16T14:14:43.636Z,35.20
2017-05-16T14:17:42.379Z,32.00
2017-05-16T14:20:11.438Z,36.20
2017-05-16T14:22:44.444Z,36.80
2017-05-16T14:25:13.489Z,36.50
2017-05-16T14:27:42.477Z,35.70
2017-05-16T14:30:11.533Z,35.50
2017-05-16T14:32:44.253Z,31.70
2017-05-16T14:35:13.249Z,29.80
2017-05-16T14:37:43.239Z,34.50
2017-05-16T14:42:50.657Z,32.50
2017-05-16T14:45:19.661Z,37.00
2017-05-16T14:47:48.663Z,31.10
2017-05-16T14:50:31.751Z,28.40
2017-05-16T14:56:01.734Z,29.70
2017-05-16T14:58:44.093Z,31.70
2017-05-16T15:01:13.128Z,29.90
2017-05-16T15:03:42.122Z,29.70
2017-05-16T15:06:11.878Z,35.80
2017-05-16T15:08:44.302Z,36.00
2017-05-16T15:11:37.361Z,38.50
2017-05-16T15:14:07.140Z,36.70
2017-05-16T15:16:43.483Z,30.70
2017-05-16T15:19:12.504Z,31.70
2017-05-16T15:21:42.820Z,28.60
2017-05-16T15:24:11.822Z,29.50
2017-05-16T15:26:40.859Z,31.90
2017-05-16T15:32:10.959Z,36.70
2017-05-16T15:34:43.661Z,32.30
2017-05-16T15:37:13.431Z,35.00
2017-05-16T15:39:43.119Z,34.20
2017-05-16T15:42:42.481Z,34.70
2017-05-16T15:45:12.206Z,34.30
2017-05-16T15:47:45.101Z,30.20
2017-05-16T15:56:06.075Z,34.20
2017-05-16T15:58:43.425Z,33.80
2017-05-16T16:01:12.457Z,35.70
2017-05-16T16:03:41.495Z,34.90
2017-05-16T16:06:31.205Z,36.80
2017-05-16T16:09:00.185Z,33.80
2017-05-16T16:11:29.221Z,36.70
2017-05-16T16:13:58.231Z,38.20
2017-05-16T16:16:43.951Z,36.60
2017-05-16T16:19:12.940Z,36.00
2017-05-16T16:21:41.927Z,35.50
2017-05-16T16:24:11.688Z,36.50
2017-05-16T16:26:40.723Z,36.20
2017-05-16T16:29:10.444Z,36.90
2017-05-16T16:31:43.890Z,36.30
2017-05-16T16:40:13.138Z,35.80
2017-05-16T16:42:45.147Z,35.00
2017-05-16T16:45:38.010Z,34.70
2017-05-16T16:48:07.004Z,36.50
2017-05-16T16:50:43.193Z,35.80
2017-05-16T16:53:42.658Z,36.90
2017-05-16T16:59:42.113Z,38.10
2017-05-16T17:08:26.653Z,38.60
2017-05-16T17:13:56.472Z,38.60
2017-05-16T17:16:45.193Z,38.80
2017-05-16T17:19:14.230Z,38.00
2017-05-16T17:21:43.251Z,38.20
2017-05-16T17:27:20.744Z,36.10
2017-05-16T17:32:51.354Z,36.80
2017-05-16T17:35:20.335Z,37.70
2017-05-16T17:37:49.328Z,37.00
2017-05-16T17:40:44.174Z,37.60
2017-05-16T17:43:13.909Z,37.60
2017-05-16T17:45:42.936Z,38.50
2017-05-16T17:48:11.983Z,38.80
2017-05-16T17:50:45.164Z,38.00
2017-05-16T17:53:14.945Z,39.20
2017-05-16T17:55:44.018Z,39.00
2017-05-16T17:58:33.538Z,39.30
2017-05-16T18:03:48.573Z,38.80
2017-05-16T18:06:17.568Z,40.00
2017-05-16T18:08:46.563Z,40.30
2017-05-16T18:11:15.600Z,40.00
2017-05-16T18:13:45.321Z,40.30
2017-05-16T18:16:15.125Z,41.00
2017-05-16T18:18:44.876Z,40.80
2017-05-16T18:21:13.918Z,39.90
2017-05-16T18:23:42.902Z,40.50
2017-05-16T18:26:11.888Z,41.40
2017-05-16T18:29:34.479Z,41.30
2017-05-16T18:32:04.363Z,41.60
2017-05-16T18:34:44.653Z,42.20
2017-05-16T18:37:44.500Z,42.20
2017-05-16T19:17:55.719Z,44.00
2017-05-16T19:20:25.956Z,46.90
2017-05-16T19:22:57.444Z,46.80
2017-05-16T19:25:53.261Z,47.10
2017-05-16T19:28:33.075Z,45.80
2017-05-16T19:34:13.990Z,45.60
2017-05-16T19:39:53.636Z,45.00
2017-05-16T19:42:53.206Z,45.80
2017-05-16T19:45:52.439Z,46.10
2017-05-16T19:48:51.879Z,47.40
2017-05-16T19:54:52.898Z,47.00
2017-05-16T19:57:52.245Z,47.10
2017-05-16T20:03:24.638Z,47.10
2017-05-16T20:05:55.425Z,47.70
2017-05-16T20:08:26.178Z,47.20
2017-05-16T20:10:56.092Z,47.80
2017-05-16T20:13:27.036Z,48.10
2017-05-16T20:15:56.957Z,47.70
2017-05-16T20:18:26.927Z,47.90
2017-05-16T20:20:57.644Z,47.70
2017-05-16T20:23:29.034Z,48.00
2017-05-16T20:25:59.549Z,50.10
2017-05-16T20:28:29.535Z,50.60
2017-05-16T20:31:00.154Z,51.20
2017-05-16T20:33:30.117Z,51.30
2017-05-16T20:36:00.033Z,50.60
2017-05-16T20:38:29.949Z,50.40
2017-05-16T20:41:00.790Z,49.60
2017-05-16T20:43:31.442Z,50.20
2017-05-16T20:46:01.313Z,49.70
2017-05-16T20:48:31.186Z,49.00
2017-05-16T20:51:01.128Z,49.60
2017-05-16T20:53:31.002Z,49.90
2017-05-16T20:56:00.872Z,50.30
2017-05-16T20:58:30.782Z,50.00
2017-05-16T21:01:00.655Z,50.20
2017-05-16T21:03:30.552Z,50.80
2017-05-16T21:06:00.426Z,53.40
2017-05-16T21:08:30.308Z,53.60
2017-05-16T21:11:00.191Z,54.30
2017-05-16T21:13:30.106Z,53.40
2017-05-16T21:15:59.981Z,51.50
2017-05-16T21:18:29.895Z,52.00
2017-05-16T21:21:00.018Z,51.90
2017-05-16T21:23:29.962Z,54.50
2017-05-16T21:25:59.889Z,55.00
2017-05-16T21:28:29.783Z,53.80
2017-05-16T21:30:59.706Z,52.60
2017-05-16T21:33:29.596Z,52.60
2017-05-16T21:35:59.524Z,53.30
2017-05-16T21:38:29.436Z,52.00
2017-05-16T21:40:59.332Z,52.30
2017-05-16T21:43:29.287Z,51.70
2017-05-16T21:45:59.186Z,53.50
2017-05-16T21:48:29.124Z,55.60
2017-05-16T21:50:59.025Z,55.30
2017-05-16T21:53:28.920Z,54.30
2017-05-16T21:55:58.846Z,53.90
2017-05-16T21:58:28.729Z,53.40
2017-05-16T22:00:58.651Z,52.80
2017-05-16T22:03:52.459Z,53.60
2017-05-16T22:06:22.381Z,53.20
2017-05-16T22:08:52.260Z,53.40
2017-05-16T22:11:23.888Z,53.20
2017-05-16T22:13:53.759Z,53.20
2017-05-16T22:16:23.696Z,53.10
2017-05-16T22:18:54.307Z,52.90
2017-05-16T22:21:24.281Z,52.70
2017-05-16T22:23:54.162Z,54.60
2017-05-16T22:26:24.087Z,54.70
2017-05-16T22:28:53.967Z,53.60
2017-05-16T22:31:24.139Z,53.70
2017-05-16T22:33:54.019Z,53.30
2017-05-16T22:36:24.693Z,53.70
2017-05-16T22:38:54.581Z,53.90
2017-05-16T22:41:24.451Z,53.70
2017-05-16T22:43:54.371Z,55.60
2017-05-16T22:46:25.003Z,58.40
2017-05-16T22:48:54.915Z,58.10
2017-05-16T22:51:24.808Z,57.80
2017-05-16T22:53:54.729Z,55.80
2017-05-16T22:56:24.592Z,55.30
2017-05-16T22:58:54.457Z,55.00
2017-05-16T23:01:24.374Z,55.30
2017-05-16T23:03:54.254Z,55.10
2017-05-16T23:06:24.186Z,56.70
2017-05-16T23:08:54.066Z,56.90
2017-05-16T23:11:23.989Z,56.40
2017-05-16T23:13:53.874Z,56.30
2017-05-16T23:16:23.794Z,56.00
2017-05-16T23:18:53.661Z,55.90
2017-05-16T23:21:23.706Z,57.20
2017-05-16T23:23:54.364Z,56.00
2017-05-16T23:26:24.688Z,55.50
2017-05-16T23:28:54.604Z,57.20
2017-05-16T23:31:24.481Z,57.60
2017-05-16T23:33:54.367Z,59.30
2017-05-16T23:36:24.287Z,56.90
2017-05-16T23:38:54.168Z,56.20
2017-05-16T23:41:24.102Z,58.30
2017-05-16T23:43:54.002Z,60.40
2017-05-16T23:46:23.943Z,59.80
2017-05-16T23:48:53.831Z,57.00
2017-05-16T23:51:23.748Z,56.20
2017-05-16T23:53:53.638Z,56.60
2017-05-16T23:56:23.513Z,56.50
2017-05-16T23:58:53.435Z,57.00
